sensor_id;sensor_type;location;lat;lon;timestamp;P1;durP1;ratioP1;P2;durP2;ratioP2
39410;SDS011;26579;43.238;23.124;2022-12-29T00:01:50;42.15;;;19.65;;
39410;SDS011;26579;43.238;23.124;2022-12-29T00:04:16;40.22;;;20.08;;
39410;SDS011;26579;43.238;23.124;2022-12-29T00:06:42;75.53;;;29.70;;
39410;SDS011;26579;43.238;23.124;2022-12-29T00:09:08;63.40;;;29.38;;
39410;SDS011;26579;43.238;23.124;2022-12-29T00:11:35;58.42;;;27.58;;
39410;SDS011;26579;43.238;23.124;2022-12-29T00:14:01;60.92;;;28.77;;
39410;SDS011;26579;43.238;23.124;2022-12-29T00:16:27;65.28;;;29.83;;
39410;SDS011;26579;43.238;23.124;2022-12-29T00:18:53;72.32;;;33.75;;
39410;SDS011;26579;43.238;23.124;2022-12-29T00:21:20;55.60;;;27.42;;
39410;SDS011;26579;43.238;23.124;2022-12-29T00:23:47;43.67;;;23.30;;
39410;SDS011;26579;43.238;23.124;2022-12-29T00:26:15;54.80;;;27.45;;
39410;SDS011;26579;43.238;23.124;2022-12-29T00:28:42;60.58;;;27.95;;
39410;SDS011;26579;43.238;23.124;2022-12-29T00:31:10;56.72;;;28.25;;
39410;SDS011;26579;43.238;23.124;2022-12-29T00:33:37;58.47;;;28.52;;
39410;SDS011;26579;43.238;23.124;2022-12-29T00:36:16;52.45;;;26.13;;
39410;SDS011;26579;43.238;23.124;2022-12-29T00:39:16;47.45;;;25.65;;
39410;SDS011;26579;43.238;23.124;2022-12-29T00:41:39;52.15;;;23.60;;
39410;SDS011;26579;43.238;23.124;2022-12-29T00:44:05;49.33;;;25.70;;
39410;SDS011;26579;43.238;23.124;2022-12-29T00:46:32;38.63;;;20.98;;
39410;SDS011;26579;43.238;23.124;2022-12-29T00:48:58;43.03;;;18.95;;
39410;SDS011;26579;43.238;23.124;2022-12-29T00:51:25;35.60;;;16.55;;
39410;SDS011;26579;43.238;23.124;2022-12-29T00:53:51;41.38;;;18.30;;
39410;SDS011;26579;43.238;23.124;2022-12-29T00:56:16;34.80;;;17.10;;
39410;SDS011;26579;43.238;23.124;2022-12-29T00:58:42;34.17;;;15.55;;
39410;SDS011;26579;43.238;23.124;2022-12-29T01:01:08;41.80;;;18.58;;
39410;SDS011;26579;43.238;23.124;2022-12-29T01:03:35;29.50;;;13.13;;
39410;SDS011;26579;43.238;23.124;2022-12-29T01:06:03;20.80;;;10.38;;
39410;SDS011;26579;43.238;23.124;2022-12-29T01:08:30;23.00;;;11.35;;
39410;SDS011;26579;43.238;23.124;2022-12-29T01:11:04;21.92;;;10.50;;
39410;SDS011;26579;43.238;23.124;2022-12-29T01:13:32;21.33;;;9.63;;
39410;SDS011;26579;43.238;23.124;2022-12-29T01:15:57;24.95;;;10.27;;
39410;SDS011;26579;43.238;23.124;2022-12-29T01:18:24;25.15;;;11.50;;
39410;SDS011;26579;43.238;23.124;2022-12-29T01:20:51;27.88;;;12.25;;
39410;SDS011;26579;43.238;23.124;2022-12-29T01:23:23;31.38;;;15.02;;
39410;SDS011;26579;43.238;23.124;2022-12-29T01:25:49;37.72;;;17.65;;
39410;SDS011;26579;43.238;23.124;2022-12-29T01:28:14;49.22;;;21.90;;
39410;SDS011;26579;43.238;23.124;2022-12-29T01:30:40;29.50;;;13.77;;
39410;SDS011;26579;43.238;23.124;2022-12-29T01:33:06;20.30;;;9.73;;
39410;SDS011;26579;43.238;23.124;2022-12-29T01:35:31;22.33;;;11.52;;
39410;SDS011;26579;43.238;23.124;2022-12-29T01:37:57;18.35;;;8.82;;
39410;SDS011;26579;43.238;23.124;2022-12-29T01:40:23;18.10;;;9.88;;
39410;SDS011;26579;43.238;23.124;2022-12-29T01:42:49;13.18;;;7.07;;
39410;SDS011;26579;43.238;23.124;2022-12-29T01:45:15;13.98;;;7.55;;
39410;SDS011;26579;43.238;23.124;2022-12-29T01:47:50;14.60;;;7.75;;
39410;SDS011;26579;43.238;23.124;2022-12-29T01:53:03;11.73;;;6.25;;
39410;SDS011;26579;43.238;23.124;2022-12-29T01:55:34;11.98;;;6.90;;
39410;SDS011;26579;43.238;23.124;2022-12-29T01:58:06;13.35;;;6.80;;
39410;SDS011;26579;43.238;23.124;2022-12-29T02:00:34;15.85;;;7.32;;
39410;SDS011;26579;43.238;23.124;2022-12-29T02:03:02;14.98;;;6.88;;
39410;SDS011;26579;43.238;23.124;2022-12-29T02:05:42;16.33;;;8.98;;
39410;SDS011;26579;43.238;23.124;2022-12-29T02:08:14;14.13;;;6.60;;
39410;SDS011;26579;43.238;23.124;2022-12-29T02:10:40;21.77;;;11.63;;
39410;SDS011;26579;43.238;23.124;2022-12-29T02:13:07;24.20;;;11.65;;
39410;SDS011;26579;43.238;23.124;2022-12-29T02:15:35;21.85;;;12.20;;
39410;SDS011;26579;43.238;23.124;2022-12-29T02:40:14;14.32;;;6.22;;
39410;SDS011;26579;43.238;23.124;2022-12-29T02:45:41;14.93;;;8.18;;
39410;SDS011;26579;43.238;23.124;2022-12-29T02:48:31;17.20;;;8.20;;
39410;SDS011;26579;43.238;23.124;2022-12-29T02:51:15;14.88;;;6.15;;
39410;SDS011;26579;43.238;23.124;2022-12-29T02:53:47;12.60;;;6.18;;
39410;SDS011;26579;43.238;23.124;2022-12-29T02:56:14;15.88;;;7.40;;
39410;SDS011;26579;43.238;23.124;2022-12-29T02:58:40;16.02;;;8.38;;
39410;SDS011;26579;43.238;23.124;2022-12-29T03:15:09;19.65;;;11.02;;
39410;SDS011;26579;43.238;23.124;2022-12-29T03:20:23;15.55;;;7.15;;
39410;SDS011;26579;43.238;23.124;2022-12-29T03:22:57;15.52;;;7.03;;
39410;SDS011;26579;43.238;23.124;2022-12-29T03:25:27;12.35;;;5.97;;
39410;SDS011;26579;43.238;23.124;2022-12-29T03:27:58;10.30;;;4.93;;
39410;SDS011;26579;43.238;23.124;2022-12-29T03:30:32;16.95;;;5.75;;
39410;SDS011;26579;43.238;23.124;2022-12-29T03:33:02;12.85;;;7.25;;
39410;SDS011;26579;43.238;23.124;2022-12-29T03:35:33;18.02;;;7.63;;
39410;SDS011;26579;43.238;23.124;2022-12-29T03:40:50;15.23;;;8.32;;
39410;SDS011;26579;43.238;23.124;2022-12-29T03:43:21;14.05;;;7.00;;
39410;SDS011;26579;43.238;23.124;2022-12-29T03:45:48;14.23;;;6.90;;
39410;SDS011;26579;43.238;23.124;2022-12-29T03:48:14;16.00;;;8.25;;
39410;SDS011;26579;43.238;23.124;2022-12-29T03:50:40;12.60;;;6.68;;
39410;SDS011;26579;43.238;23.124;2022-12-29T03:53:06;19.95;;;10.13;;
39410;SDS011;26579;43.238;23.124;2022-12-29T03:55:32;22.95;;;11.15;;
39410;SDS011;26579;43.238;23.124;2022-12-29T03:57:58;23.70;;;12.00;;
39410;SDS011;26579;43.238;23.124;2022-12-29T04:00:48;35.33;;;15.50;;
39410;SDS011;26579;43.238;23.124;2022-12-29T04:03:14;31.02;;;15.02;;
39410;SDS011;26579;43.238;23.124;2022-12-29T04:05:40;31.45;;;13.18;;
39410;SDS011;26579;43.238;23.124;2022-12-29T04:08:06;25.13;;;12.93;;
39410;SDS011;26579;43.238;23.124;2022-12-29T04:10:32;30.60;;;12.55;;
39410;SDS011;26579;43.238;23.124;2022-12-29T04:13:00;29.33;;;12.82;;
39410;SDS011;26579;43.238;23.124;2022-12-29T04:15:26;25.35;;;12.48;;
39410;SDS011;26579;43.238;23.124;2022-12-29T04:17:52;25.85;;;11.80;;
39410;SDS011;26579;43.238;23.124;2022-12-29T04:20:18;29.77;;;14.38;;
39410;SDS011;26579;43.238;23.124;2022-12-29T04:22:43;35.90;;;15.27;;
39410;SDS011;26579;43.238;23.124;2022-12-29T04:25:09;30.60;;;15.65;;
39410;SDS011;26579;43.238;23.124;2022-12-29T04:27:36;21.50;;;10.95;;
39410;SDS011;26579;43.238;23.124;2022-12-29T04:30:39;22.48;;;10.65;;
39410;SDS011;26579;43.238;23.124;2022-12-29T04:33:13;19.05;;;9.30;;
39410;SDS011;26579;43.238;23.124;2022-12-29T04:35:41;24.65;;;12.27;;
39410;SDS011;26579;43.238;23.124;2022-12-29T04:38:07;25.58;;;11.63;;
39410;SDS011;26579;43.238;23.124;2022-12-29T04:40:33;17.73;;;9.23;;
39410;SDS011;26579;43.238;23.124;2022-12-29T04:42:59;20.92;;;9.77;;
39410;SDS011;26579;43.238;23.124;2022-12-29T04:45:26;22.70;;;12.07;;
39410;SDS011;26579;43.238;23.124;2022-12-29T04:47:58;25.45;;;13.07;;
39410;SDS011;26579;43.238;23.124;2022-12-29T04:50:42;25.52;;;14.82;;
39410;SDS011;26579;43.238;23.124;2022-12-29T04:53:17;30.67;;;15.65;;
39410;SDS011;26579;43.238;23.124;2022-12-29T04:55:43;26.50;;;14.68;;
39410;SDS011;26579;43.238;23.124;2022-12-29T04:58:13;29.67;;;14.90;;
39410;SDS011;26579;43.238;23.124;2022-12-29T05:00:39;31.63;;;15.48;;
39410;SDS011;26579;43.238;23.124;2022-12-29T05:03:05;23.73;;;13.45;;
39410;SDS011;26579;43.238;23.124;2022-12-29T05:05:31;33.47;;;17.75;;
39410;SDS011;26579;43.238;23.124;2022-12-29T05:07:57;38.92;;;19.23;;
39410;SDS011;26579;43.238;23.124;2022-12-29T05:10:23;35.90;;;17.88;;
39410;SDS011;26579;43.238;23.124;2022-12-29T05:12:51;36.53;;;21.05;;
39410;SDS011;26579;43.238;23.124;2022-12-29T05:15:17;44.67;;;22.23;;
39410;SDS011;26579;43.238;23.124;2022-12-29T05:17:43;41.47;;;18.85;;
39410;SDS011;26579;43.238;23.124;2022-12-29T05:20:09;39.38;;;19.25;;
39410;SDS011;26579;43.238;23.124;2022-12-29T05:22:36;34.10;;;17.77;;
39410;SDS011;26579;43.238;23.124;2022-12-29T05:25:03;35.42;;;16.50;;
39410;SDS011;26579;43.238;23.124;2022-12-29T05:27:34;55.83;;;25.27;;
39410;SDS011;26579;43.238;23.124;2022-12-29T05:30:08;24.90;;;12.57;;
39410;SDS011;26579;43.238;23.124;2022-12-29T05:32:35;20.25;;;9.77;;
39410;SDS011;26579;43.238;23.124;2022-12-29T05:35:00;29.67;;;14.82;;
39410;SDS011;26579;43.238;23.124;2022-12-29T05:37:27;30.27;;;15.23;;
39410;SDS011;26579;43.238;23.124;2022-12-29T05:39:53;32.05;;;15.98;;
39410;SDS011;26579;43.238;23.124;2022-12-29T05:42:19;36.10;;;19.60;;
39410;SDS011;26579;43.238;23.124;2022-12-29T05:44:53;44.88;;;21.83;;
39410;SDS011;26579;43.238;23.124;2022-12-29T05:47:39;44.33;;;23.33;;
39410;SDS011;26579;43.238;23.124;2022-12-29T05:50:20;34.75;;;16.30;;
39410;SDS011;26579;43.238;23.124;2022-12-29T05:53:08;33.10;;;17.23;;
39410;SDS011;26579;43.238;23.124;2022-12-29T05:55:36;35.40;;;19.83;;
39410;SDS011;26579;43.238;23.124;2022-12-29T05:58:02;33.55;;;17.38;;
39410;SDS011;26579;43.238;23.124;2022-12-29T06:00:27;33.30;;;16.45;;
39410;SDS011;26579;43.238;23.124;2022-12-29T06:02:53;42.05;;;21.92;;
39410;SDS011;26579;43.238;23.124;2022-12-29T06:05:19;46.17;;;23.77;;
39410;SDS011;26579;43.238;23.124;2022-12-29T06:07:45;40.10;;;19.52;;
39410;SDS011;26579;43.238;23.124;2022-12-29T06:10:14;38.28;;;20.10;;
39410;SDS011;26579;43.238;23.124;2022-12-29T06:12:46;77.18;;;34.80;;
39410;SDS011;26579;43.238;23.124;2022-12-29T06:15:13;64.72;;;30.52;;
39410;SDS011;26579;43.238;23.124;2022-12-29T06:17:40;62.47;;;30.65;;
39410;SDS011;26579;43.238;23.124;2022-12-29T06:20:06;71.60;;;36.65;;
39410;SDS011;26579;43.238;23.124;2022-12-29T06:22:33;87.10;;;42.72;;
39410;SDS011;26579;43.238;23.124;2022-12-29T06:25:00;68.20;;;35.45;;
39410;SDS011;26579;43.238;23.124;2022-12-29T06:27:25;66.45;;;35.72;;
39410;SDS011;26579;43.238;23.124;2022-12-29T06:29:58;54.88;;;30.90;;
39410;SDS011;26579;43.238;23.124;2022-12-29T06:34:59;82.78;;;41.35;;
39410;SDS011;26579;43.238;23.124;2022-12-29T06:37:31;72.93;;;32.97;;
39410;SDS011;26579;43.238;23.124;2022-12-29T06:40:00;73.97;;;35.20;;
39410;SDS011;26579;43.238;23.124;2022-12-29T06:42:33;68.10;;;35.00;;
39410;SDS011;26579;43.238;23.124;2022-12-29T06:45:27;78.93;;;39.58;;
39410;SDS011;26579;43.238;23.124;2022-12-29T06:47:53;89.20;;;46.70;;
39410;SDS011;26579;43.238;23.124;2022-12-29T06:50:19;158.52;;;77.03;;
39410;SDS011;26579;43.238;23.124;2022-12-29T06:52:44;106.70;;;53.67;;
39410;SDS011;26579;43.238;23.124;2022-12-29T06:55:10;107.00;;;50.78;;
39410;SDS011;26579;43.238;23.124;2022-12-29T06:57:39;108.25;;;55.28;;
39410;SDS011;26579;43.238;23.124;2022-12-29T07:00:05;124.20;;;62.80;;
39410;SDS011;26579;43.238;23.124;2022-12-29T07:02:31;134.40;;;65.10;;
39410;SDS011;26579;43.238;23.124;2022-12-29T07:04:57;126.32;;;62.78;;
39410;SDS011;26579;43.238;23.124;2022-12-29T07:07:23;151.73;;;73.50;;
39410;SDS011;26579;43.238;23.124;2022-12-29T07:09:49;152.60;;;78.65;;
39410;SDS011;26579;43.238;23.124;2022-12-29T07:12:15;133.07;;;61.97;;
39410;SDS011;26579;43.238;23.124;2022-12-29T07:14:40;89.60;;;43.78;;
39410;SDS011;26579;43.238;23.124;2022-12-29T07:17:06;76.68;;;38.92;;
39410;SDS011;26579;43.238;23.124;2022-12-29T07:19:32;96.57;;;50.50;;
39410;SDS011;26579;43.238;23.124;2022-12-29T07:21:58;80.35;;;40.35;;
39410;SDS011;26579;43.238;23.124;2022-12-29T07:24:24;94.13;;;47.38;;
39410;SDS011;26579;43.238;23.124;2022-12-29T07:26:50;72.70;;;35.78;;
39410;SDS011;26579;43.238;23.124;2022-12-29T07:29:15;54.13;;;31.77;;
39410;SDS011;26579;43.238;23.124;2022-12-29T07:31:41;52.13;;;30.90;;
39410;SDS011;26579;43.238;23.124;2022-12-29T07:34:07;86.50;;;45.70;;
39410;SDS011;26579;43.238;23.124;2022-12-29T07:36:33;61.05;;;34.92;;
39410;SDS011;26579;43.238;23.124;2022-12-29T07:38:59;62.55;;;33.70;;
39410;SDS011;26579;43.238;23.124;2022-12-29T07:41:25;76.78;;;45.00;;
39410;SDS011;26579;43.238;23.124;2022-12-29T07:43:50;90.78;;;51.22;;
39410;SDS011;26579;43.238;23.124;2022-12-29T07:46:42;89.18;;;47.80;;
39410;SDS011;26579;43.238;23.124;2022-12-29T07:49:08;88.22;;;49.38;;
39410;SDS011;26579;43.238;23.124;2022-12-29T07:51:34;111.80;;;63.70;;
39410;SDS011;26579;43.238;23.124;2022-12-29T07:53:59;77.28;;;43.42;;
39410;SDS011;26579;43.238;23.124;2022-12-29T07:56:25;80.10;;;46.13;;
39410;SDS011;26579;43.238;23.124;2022-12-29T07:58:51;88.20;;;51.22;;
39410;SDS011;26579;43.238;23.124;2022-12-29T08:01:17;82.78;;;48.00;;
39410;SDS011;26579;43.238;23.124;2022-12-29T08:03:43;94.65;;;51.72;;
39410;SDS011;26579;43.238;23.124;2022-12-29T08:06:11;89.43;;;50.33;;
39410;SDS011;26579;43.238;23.124;2022-12-29T08:08:37;65.03;;;40.22;;
39410;SDS011;26579;43.238;23.124;2022-12-29T08:11:03;73.82;;;42.83;;
39410;SDS011;26579;43.238;23.124;2022-12-29T08:13:29;65.30;;;37.47;;
39410;SDS011;26579;43.238;23.124;2022-12-29T08:15:54;56.15;;;35.70;;
39410;SDS011;26579;43.238;23.124;2022-12-29T08:18:23;63.58;;;40.72;;
39410;SDS011;26579;43.238;23.124;2022-12-29T08:20:49;66.47;;;39.33;;
39410;SDS011;26579;43.238;23.124;2022-12-29T08:23:15;58.22;;;37.00;;
39410;SDS011;26579;43.238;23.124;2022-12-29T08:25:40;48.67;;;32.08;;
39410;SDS011;26579;43.238;23.124;2022-12-29T08:28:06;43.58;;;28.75;;
39410;SDS011;26579;43.238;23.124;2022-12-29T08:30:32;54.83;;;29.25;;
39410;SDS011;26579;43.238;23.124;2022-12-29T08:32:58;47.75;;;28.88;;
39410;SDS011;26579;43.238;23.124;2022-12-29T08:35:23;46.05;;;31.00;;
39410;SDS011;26579;43.238;23.124;2022-12-29T08:37:49;40.35;;;27.92;;
39410;SDS011;26579;43.238;23.124;2022-12-29T08:40:15;45.00;;;28.92;;
39410;SDS011;26579;43.238;23.124;2022-12-29T08:42:41;45.30;;;32.08;;
39410;SDS011;26579;43.238;23.124;2022-12-29T08:45:07;44.05;;;31.42;;
39410;SDS011;26579;43.238;23.124;2022-12-29T08:47:33;44.63;;;30.02;;
39410;SDS011;26579;43.238;23.124;2022-12-29T08:49:58;31.27;;;21.90;;
39410;SDS011;26579;43.238;23.124;2022-12-29T08:52:24;42.72;;;28.00;;
39410;SDS011;26579;43.238;23.124;2022-12-29T08:54:50;37.22;;;27.38;;
39410;SDS011;26579;43.238;23.124;2022-12-29T08:57:15;38.00;;;28.83;;
39410;SDS011;26579;43.238;23.124;2022-12-29T08:59:54;46.00;;;34.00;;
39410;SDS011;26579;43.238;23.124;2022-12-29T09:02:19;28.92;;;22.23;;
39410;SDS011;26579;43.238;23.124;2022-12-29T09:04:45;32.70;;;25.13;;
39410;SDS011;26579;43.238;23.124;2022-12-29T09:07:11;36.75;;;22.13;;
39410;SDS011;26579;43.238;23.124;2022-12-29T09:09:36;34.67;;;22.73;;
39410;SDS011;26579;43.238;23.124;2022-12-29T09:12:02;45.30;;;29.65;;
39410;SDS011;26579;43.238;23.124;2022-12-29T09:14:28;36.95;;;26.27;;
39410;SDS011;26579;43.238;23.124;2022-12-29T09:16:54;49.42;;;29.90;;
39410;SDS011;26579;43.238;23.124;2022-12-29T09:19:20;31.45;;;21.35;;
39410;SDS011;26579;43.238;23.124;2022-12-29T09:21:46;33.17;;;18.55;;
39410;SDS011;26579;43.238;23.124;2022-12-29T09:24:11;28.70;;;18.60;;
39410;SDS011;26579;43.238;23.124;2022-12-29T09:26:37;25.13;;;17.20;;
39410;SDS011;26579;43.238;23.124;2022-12-29T09:29:03;31.98;;;23.20;;
39410;SDS011;26579;43.238;23.124;2022-12-29T09:31:28;38.53;;;27.60;;
39410;SDS011;26579;43.238;23.124;2022-12-29T09:33:54;25.75;;;17.23;;
39410;SDS011;26579;43.238;23.124;2022-12-29T09:36:20;16.90;;;12.30;;
39410;SDS011;26579;43.238;23.124;2022-12-29T09:38:45;22.42;;;12.45;;
39410;SDS011;26579;43.238;23.124;2022-12-29T09:41:15;19.05;;;12.70;;
39410;SDS011;26579;43.238;23.124;2022-12-29T09:46:52;16.05;;;11.40;;
39410;SDS011;26579;43.238;23.124;2022-12-29T09:52:11;18.75;;;12.43;;
39410;SDS011;26579;43.238;23.124;2022-12-29T09:57:15;19.55;;;12.73;;
39410;SDS011;26579;43.238;23.124;2022-12-29T10:04:45;31.10;;;18.55;;
39410;SDS011;26579;43.238;23.124;2022-12-29T10:07:14;23.88;;;16.38;;
39410;SDS011;26579;43.238;23.124;2022-12-29T10:26:10;19.58;;;11.57;;
39410;SDS011;26579;43.238;23.124;2022-12-29T10:28:46;18.85;;;12.10;;
39410;SDS011;26579;43.238;23.124;2022-12-29T10:31:22;16.45;;;11.00;;
39410;SDS011;26579;43.238;23.124;2022-12-29T10:33:51;19.38;;;11.75;;
39410;SDS011;26579;43.238;23.124;2022-12-29T10:36:35;16.50;;;9.60;;
39410;SDS011;26579;43.238;23.124;2022-12-29T10:44:24;18.10;;;12.32;;
39410;SDS011;26579;43.238;23.124;2022-12-29T10:46:57;19.98;;;10.40;;
39410;SDS011;26579;43.238;23.124;2022-12-29T10:49:25;13.52;;;8.70;;
39410;SDS011;26579;43.238;23.124;2022-12-29T10:51:54;16.52;;;9.88;;
39410;SDS011;26579;43.238;23.124;2022-12-29T10:54:25;16.98;;;10.73;;
39410;SDS011;26579;43.238;23.124;2022-12-29T10:56:56;20.35;;;10.93;;
39410;SDS011;26579;43.238;23.124;2022-12-29T10:59:31;22.98;;;13.95;;
39410;SDS011;26579;43.238;23.124;2022-12-29T11:04:35;17.13;;;10.90;;
39410;SDS011;26579;43.238;23.124;2022-12-29T11:07:04;75.63;;;48.58;;
39410;SDS011;26579;43.238;23.124;2022-12-29T11:09:31;38.58;;;24.48;;
39410;SDS011;26579;43.238;23.124;2022-12-29T11:12:26;19.67;;;12.77;;
39410;SDS011;26579;43.238;23.124;2022-12-29T11:15:27;23.73;;;14.68;;
39410;SDS011;26579;43.238;23.124;2022-12-29T11:17:50;27.80;;;13.93;;
39410;SDS011;26579;43.238;23.124;2022-12-29T11:22:56;24.58;;;14.90;;
39410;SDS011;26579;43.238;23.124;2022-12-29T11:25:22;19.15;;;13.27;;
39410;SDS011;26579;43.238;23.124;2022-12-29T11:27:55;19.55;;;12.52;;
39410;SDS011;26579;43.238;23.124;2022-12-29T11:30:22;26.88;;;13.27;;
39410;SDS011;26579;43.238;23.124;2022-12-29T11:32:53;16.63;;;11.10;;
39410;SDS011;26579;43.238;23.124;2022-12-29T11:35:40;20.50;;;11.93;;
39410;SDS011;26579;43.238;23.124;2022-12-29T11:38:21;15.52;;;9.93;;
39410;SDS011;26579;43.238;23.124;2022-12-29T11:40:51;20.70;;;13.25;;
39410;SDS011;26579;43.238;23.124;2022-12-29T11:43:29;17.02;;;10.90;;
39410;SDS011;26579;43.238;23.124;2022-12-29T11:45:58;22.73;;;14.88;;
39410;SDS011;26579;43.238;23.124;2022-12-29T11:48:27;23.88;;;15.63;;
39410;SDS011;26579;43.238;23.124;2022-12-29T11:50:58;20.70;;;13.93;;
39410;SDS011;26579;43.238;23.124;2022-12-29T11:55:54;25.13;;;15.77;;
39410;SDS011;26579;43.238;23.124;2022-12-29T11:58:29;23.40;;;13.93;;
39410;SDS011;26579;43.238;23.124;2022-12-29T12:00:56;24.87;;;16.63;;
39410;SDS011;26579;43.238;23.124;2022-12-29T12:03:28;21.58;;;13.57;;
39410;SDS011;26579;43.238;23.124;2022-12-29T12:06:03;23.65;;;16.27;;
39410;SDS011;26579;43.238;23.124;2022-12-29T12:08:33;23.40;;;16.13;;
39410;SDS011;26579;43.238;23.124;2022-12-29T12:16:22;26.63;;;17.40;;
39410;SDS011;26579;43.238;23.124;2022-12-29T12:19:02;29.55;;;16.38;;
39410;SDS011;26579;43.238;23.124;2022-12-29T12:21:39;26.77;;;17.13;;
39410;SDS011;26579;43.238;23.124;2022-12-29T12:24:11;30.98;;;17.17;;
39410;SDS011;26579;43.238;23.124;2022-12-29T12:34:41;23.90;;;13.90;;
39410;SDS011;26579;43.238;23.124;2022-12-29T12:51:11;20.58;;;14.40;;
39410;SDS011;26579;43.238;23.124;2022-12-29T12:53:53;25.92;;;16.50;;
39410;SDS011;26579;43.238;23.124;2022-12-29T12:56:37;26.73;;;15.60;;
39410;SDS011;26579;43.238;23.124;2022-12-29T13:01:44;23.65;;;14.40;;
39410;SDS011;26579;43.238;23.124;2022-12-29T13:04:47;29.33;;;15.15;;
39410;SDS011;26579;43.238;23.124;2022-12-29T13:10:12;16.92;;;10.50;;
39410;SDS011;26579;43.238;23.124;2022-12-29T13:15:56;35.92;;;20.98;;
39410;SDS011;26579;43.238;23.124;2022-12-29T13:18:39;29.08;;;17.95;;
39410;SDS011;26579;43.238;23.124;2022-12-29T13:24:10;23.08;;;13.25;;
39410;SDS011;26579;43.238;23.124;2022-12-29T13:26:43;20.45;;;13.25;;
39410;SDS011;26579;43.238;23.124;2022-12-29T13:37:19;27.83;;;17.85;;
39410;SDS011;26579;43.238;23.124;2022-12-29T13:39:48;34.63;;;19.45;;
39410;SDS011;26579;43.238;23.124;2022-12-29T13:42:39;40.45;;;25.25;;
39410;SDS011;26579;43.238;23.124;2022-12-29T13:45:10;51.10;;;26.02;;
39410;SDS011;26579;43.238;23.124;2022-12-29T13:47:51;54.88;;;31.88;;
39410;SDS011;26579;43.238;23.124;2022-12-29T13:50:27;70.43;;;39.80;;
39410;SDS011;26579;43.238;23.124;2022-12-29T14:01:42;47.97;;;29.13;;
39410;SDS011;26579;43.238;23.124;2022-12-29T14:03:53;34.35;;;20.40;;
39410;SDS011;26579;43.238;23.124;2022-12-29T14:06:22;43.97;;;23.33;;
39410;SDS011;26579;43.238;23.124;2022-12-29T14:09:00;42.78;;;22.10;;
39410;SDS011;26579;43.238;23.124;2022-12-29T14:11:30;59.65;;;37.55;;
39410;SDS011;26579;43.238;23.124;2022-12-29T14:13:56;83.25;;;40.90;;
39410;SDS011;26579;43.238;23.124;2022-12-29T14:16:32;123.13;;;67.25;;
39410;SDS011;26579;43.238;23.124;2022-12-29T14:21:49;105.60;;;64.35;;
39410;SDS011;26579;43.238;23.124;2022-12-29T14:26:58;100.80;;;63.15;;
39410;SDS011;26579;43.238;23.124;2022-12-29T14:31:52;79.03;;;46.20;;
39410;SDS011;26579;43.238;23.124;2022-12-29T14:39:29;104.78;;;57.05;;
39410;SDS011;26579;43.238;23.124;2022-12-29T14:42:04;128.43;;;72.63;;
39410;SDS011;26579;43.238;23.124;2022-12-29T14:44:49;111.63;;;69.75;;
39410;SDS011;26579;43.238;23.124;2022-12-29T14:49:54;129.00;;;79.50;;
39410;SDS011;26579;43.238;23.124;2022-12-29T14:52:24;125.40;;;73.78;;
39410;SDS011;26579;43.238;23.124;2022-12-29T14:54:55;196.90;;;111.25;;
39410;SDS011;26579;43.238;23.124;2022-12-29T14:57:24;115.68;;;68.80;;
39410;SDS011;26579;43.238;23.124;2022-12-29T14:59:55;109.28;;;63.55;;
39410;SDS011;26579;43.238;23.124;2022-12-29T15:02:26;119.30;;;68.70;;
39410;SDS011;26579;43.238;23.124;2022-12-29T15:04:58;124.07;;;68.18;;
39410;SDS011;26579;43.238;23.124;2022-12-29T15:07:26;131.70;;;75.80;;
39410;SDS011;26579;43.238;23.124;2022-12-29T15:09:56;97.15;;;57.05;;
39410;SDS011;26579;43.238;23.124;2022-12-29T15:12:30;107.88;;;61.40;;
39410;SDS011;26579;43.238;23.124;2022-12-29T15:14:59;124.85;;;72.00;;
39410;SDS011;26579;43.238;23.124;2022-12-29T15:17:32;104.88;;;60.58;;
39410;SDS011;26579;43.238;23.124;2022-12-29T15:20:44;85.80;;;51.35;;
39410;SDS011;26579;43.238;23.124;2022-12-29T15:23:22;80.88;;;44.65;;
39410;SDS011;26579;43.238;23.124;2022-12-29T15:25:50;83.40;;;48.90;;
39410;SDS011;26579;43.238;23.124;2022-12-29T15:28:23;85.78;;;49.35;;
39410;SDS011;26579;43.238;23.124;2022-12-29T15:30:53;90.60;;;50.35;;
39410;SDS011;26579;43.238;23.124;2022-12-29T15:33:19;72.78;;;44.35;;
39410;SDS011;26579;43.238;23.124;2022-12-29T15:35:51;65.25;;;38.00;;
39410;SDS011;26579;43.238;23.124;2022-12-29T15:38:23;125.95;;;71.90;;
39410;SDS011;26579;43.238;23.124;2022-12-29T15:40:54;117.47;;;70.20;;
39410;SDS011;26579;43.238;23.124;2022-12-29T15:45:57;108.28;;;66.85;;
39410;SDS011;26579;43.238;23.124;2022-12-29T15:48:26;92.43;;;57.55;;
39410;SDS011;26579;43.238;23.124;2022-12-29T15:50:52;84.32;;;49.65;;
39410;SDS011;26579;43.238;23.124;2022-12-29T15:53:19;108.00;;;64.82;;
39410;SDS011;26579;43.238;23.124;2022-12-29T15:55:48;153.50;;;92.88;;
39410;SDS011;26579;43.238;23.124;2022-12-29T15:58:18;138.65;;;84.47;;
39410;SDS011;26579;43.238;23.124;2022-12-29T16:00:49;80.43;;;48.20;;
39410;SDS011;26579;43.238;23.124;2022-12-29T16:03:17;88.55;;;52.22;;
39410;SDS011;26579;43.238;23.124;2022-12-29T16:05:43;85.28;;;51.92;;
39410;SDS011;26579;43.238;23.124;2022-12-29T16:08:33;70.20;;;41.92;;
39410;SDS011;26579;43.238;23.124;2022-12-29T16:11:02;75.55;;;44.88;;
39410;SDS011;26579;43.238;23.124;2022-12-29T16:13:38;97.40;;;50.92;;
39410;SDS011;26579;43.238;23.124;2022-12-29T16:16:16;114.35;;;65.47;;
39410;SDS011;26579;43.238;23.124;2022-12-29T16:18:45;72.35;;;40.63;;
39410;SDS011;26579;43.238;23.124;2022-12-29T16:21:32;55.83;;;30.77;;
39410;SDS011;26579;43.238;23.124;2022-12-29T16:24:00;48.88;;;29.48;;
39410;SDS011;26579;43.238;23.124;2022-12-29T16:26:30;59.50;;;33.15;;
39410;SDS011;26579;43.238;23.124;2022-12-29T16:29:00;85.53;;;47.00;;
39410;SDS011;26579;43.238;23.124;2022-12-29T16:31:34;94.43;;;52.65;;
39410;SDS011;26579;43.238;23.124;2022-12-29T16:34:11;85.93;;;45.35;;
39410;SDS011;26579;43.238;23.124;2022-12-29T16:39:36;76.13;;;40.97;;
39410;SDS011;26579;43.238;23.124;2022-12-29T16:42:46;48.50;;;26.55;;
39410;SDS011;26579;43.238;23.124;2022-12-29T16:45:00;59.67;;;33.27;;
39410;SDS011;26579;43.238;23.124;2022-12-29T16:47:45;53.92;;;30.92;;
39410;SDS011;26579;43.238;23.124;2022-12-29T16:50:13;52.92;;;28.65;;
39410;SDS011;26579;43.238;23.124;2022-12-29T16:52:42;45.25;;;23.52;;
39410;SDS011;26579;43.238;23.124;2022-12-29T16:55:14;36.72;;;21.50;;
39410;SDS011;26579;43.238;23.124;2022-12-29T16:57:42;34.90;;;20.00;;
39410;SDS011;26579;43.238;23.124;2022-12-29T17:00:17;39.38;;;20.10;;
39410;SDS011;26579;43.238;23.124;2022-12-29T17:02:49;57.42;;;31.92;;
39410;SDS011;26579;43.238;23.124;2022-12-29T17:05:17;122.78;;;63.65;;
39410;SDS011;26579;43.238;23.124;2022-12-29T17:07:44;143.48;;;73.32;;
39410;SDS011;26579;43.238;23.124;2022-12-29T17:10:10;126.45;;;71.57;;
39410;SDS011;26579;43.238;23.124;2022-12-29T17:12:36;118.20;;;65.32;;
39410;SDS011;26579;43.238;23.124;2022-12-29T17:15:03;119.70;;;65.53;;